Cedar Park's Hourly Summary for Wednesday, March 15, 2017
Hour Temp
(f)
RH
(%)
Solar Rad.
(MJ/m2)
Rainfall
(in)
Wind
(mph)
3/15/2017 12:00 AM 50 70 0 0 0
3/15/2017 1:00 AM 49 70 0 0 0.18
3/15/2017 2:00 AM 49 74 0 0 0.09
3/15/2017 3:00 AM 50 77 0 0 0.33
3/15/2017 4:00 AM 50 83 0 0 1.17
3/15/2017 5:00 AM 47 92 0 0 0
3/15/2017 6:00 AM 47 99 0 0 0
3/15/2017 7:00 AM 46 99 0 0 0.01
3/15/2017 8:00 AM 45 99 0.01 0 0.01
3/15/2017 9:00 AM 48 93 0.44 0 0.86
3/15/2017 10:00 AM 53 78 1.15 0 2.41
3/15/2017 11:00 AM 57 69 1.53 0 3.46
3/15/2017 12:00 PM 61 50 2.47 0 4.74
3/15/2017 1:00 PM 65 42 2.89 0 4.6
3/15/2017 2:00 PM 66 34 3.07 0 5.51
3/15/2017 3:00 PM 69 33 2.67 0 4.88
3/15/2017 4:00 PM 70 33 2.58 0 4.95
3/15/2017 5:00 PM 70 39 2.12 0 6.12
3/15/2017 6:00 PM 70 42 0.72 0 6.99
3/15/2017 7:00 PM 69 46 0.28 0 5.96
3/15/2017 8:00 PM 67 51 0.05 0 5.68
3/15/2017 9:00 PM 66 57 0 0 4.28
3/15/2017 10:00 PM 65 63 0 0 4.91
3/15/2017 11:00 PM 63 65 0 0 5.67
Data Summary 58 64 19.98 0.00 3.03